createdAt,value
2023-01-05T00:00:11.437Z,99046.19
2023-01-05T00:02:18.790Z,99055.97
2023-01-05T00:04:26.707Z,99046.28
2023-01-05T00:06:29.052Z,99030.34
2023-01-05T00:08:36.713Z,99048.22
2023-01-05T00:10:58.416Z,99010.53
2023-01-05T00:13:19.483Z,98985.69
2023-01-05T00:15:40.412Z,98969.56
2023-01-05T00:18:01.365Z,98938.56
2023-01-05T00:20:24.354Z,98917.00
2023-01-05T00:22:31.535Z,98898.44
2023-01-05T00:24:34.183Z,98862.38
2023-01-05T00:26:36.546Z,98851.00
2023-01-05T00:28:38.881Z,98820.16
2023-01-05T00:30:44.000Z,98821.91
2023-01-05T00:32:47.274Z,98823.94
2023-01-05T00:34:50.804Z,98804.84
2023-01-05T00:36:53.496Z,98792.53
2023-01-05T00:38:55.802Z,98783.84
2023-01-05T00:40:58.147Z,98776.31
2023-01-05T00:43:01.508Z,98777.59
2023-01-05T00:45:05.910Z,98769.53
2023-01-05T00:47:08.374Z,98773.25
2023-01-05T00:49:10.974Z,98765.84
2023-01-05T00:51:13.339Z,98790.97
2023-01-05T00:53:15.652Z,98814.50
2023-01-05T00:55:18.402Z,98812.66
2023-01-05T00:57:20.927Z,98797.72
2023-01-05T00:59:23.378Z,98797.63
2023-01-05T01:01:26.742Z,98801.97
2023-01-05T01:03:29.515Z,98792.81
2023-01-05T01:05:31.820Z,98799.09
2023-01-05T01:07:34.428Z,98792.22
2023-01-05T01:09:37.438Z,98810.94
2023-01-05T01:11:40.415Z,98820.31
2023-01-05T01:13:44.974Z,98854.72
2023-01-05T01:15:47.305Z,98863.06
2023-01-05T01:17:49.613Z,98885.78
2023-01-05T01:19:52.517Z,98883.44
2023-01-05T01:21:54.995Z,98870.94
2023-01-05T01:23:57.344Z,98880.37
2023-01-05T01:26:05.072Z,98856.41
2023-01-05T01:28:07.475Z,98871.69
2023-01-05T01:30:10.650Z,98886.41
2023-01-05T01:32:13.223Z,98874.00
2023-01-05T01:34:16.093Z,98891.62
2023-01-05T01:36:18.447Z,98921.22
2023-01-05T01:38:21.191Z,98939.00
2023-01-05T01:40:24.044Z,98978.22
2023-01-05T01:42:26.429Z,98986.28
2023-01-05T01:44:47.856Z,98953.34
2023-01-05T01:46:50.771Z,98916.34
2023-01-05T01:48:58.081Z,98889.44
2023-01-05T01:51:08.440Z,98839.22
2023-01-05T01:53:23.084Z,98834.59
2023-01-05T01:55:27.092Z,98802.53
2023-01-05T01:57:29.946Z,98781.97
2023-01-05T01:59:32.479Z,98762.41
2023-01-05T02:01:35.343Z,98759.28
2023-01-05T02:03:38.853Z,98743.91
2023-01-05T02:05:41.371Z,98737.88
2023-01-05T02:07:47.310Z,98722.66
2023-01-05T02:09:49.916Z,98712.19
2023-01-05T02:12:04.309Z,98711.16
2023-01-05T02:14:26.630Z,98719.97
2023-01-05T02:16:47.423Z,98733.31
2023-01-05T02:18:56.195Z,98744.88
2023-01-05T02:21:13.302Z,98792.91
2023-01-05T02:23:28.455Z,98766.31
2023-01-05T02:25:42.569Z,98770.47
2023-01-05T02:28:27.454Z,98767.78
2023-01-05T02:30:54.760Z,98748.41
2023-01-05T02:33:13.596Z,98725.44
2023-01-05T02:35:40.315Z,98711.44
2023-01-05T02:37:59.422Z,98712.28
2023-01-05T02:40:24.854Z,98694.12
2023-01-05T02:42:31.503Z,98688.41
2023-01-05T02:44:34.383Z,98673.94
2023-01-05T02:46:37.531Z,98652.63
2023-01-05T02:48:42.273Z,98639.84
2023-01-05T02:51:06.330Z,98634.28
2023-01-05T02:53:37.168Z,98623.06
2023-01-05T02:55:45.441Z,98587.16
2023-01-05T02:58:00.842Z,98609.22
2023-01-05T03:00:04.010Z,98615.84
2023-01-05T03:02:13.639Z,98633.22
2023-01-05T03:04:48.394Z,98653.59
2023-01-05T03:07:07.553Z,98683.00
2023-01-05T03:09:10.090Z,98710.00
2023-01-05T03:11:31.922Z,98728.31
2023-01-05T03:13:43.713Z,98746.69
2023-01-05T03:15:47.628Z,98770.00
2023-01-05T03:17:58.147Z,98794.53
2023-01-05T03:20:01.578Z,98794.53
2023-01-05T03:22:29.820Z,98819.09
2023-01-05T03:24:52.364Z,98805.84
2023-01-05T03:27:13.952Z,98803.72
2023-01-05T03:29:35.278Z,98789.56
2023-01-05T03:32:15.545Z,98759.50
2023-01-05T03:34:45.588Z,98744.00
2023-01-05T03:36:53.779Z,98736.63
2023-01-05T03:39:01.534Z,98749.13
2023-01-05T03:41:11.817Z,98760.56
2023-01-05T03:43:14.681Z,98764.44
2023-01-05T03:45:19.298Z,98761.56
2023-01-05T03:47:24.723Z,98748.94
2023-01-05T03:49:27.660Z,98741.59
2023-01-05T03:51:30.206Z,98708.16
2023-01-05T03:53:32.864Z,98706.41
2023-01-05T03:55:35.257Z,98690.00
2023-01-05T03:57:37.740Z,98672.03
2023-01-05T09:21:40.661Z,98958.66
2023-01-05T09:23:49.534Z,98958.66
2023-01-05T09:25:54.739Z,98105.34
2023-01-05T09:27:58.937Z,98143.72
2023-01-05T09:30:05.008Z,98183.62
2023-01-05T09:32:12.416Z,98205.47
2023-01-05T09:34:19.805Z,98215.59
2023-01-05T09:36:28.620Z,98238.50
2023-01-05T09:38:39.672Z,98245.41
2023-01-05T09:41:01.789Z,98275.75
2023-01-05T09:43:08.174Z,98276.47
2023-01-05T09:45:16.385Z,98292.75
2023-01-05T09:47:43.028Z,98329.03
2023-01-05T09:49:55.308Z,98356.56
2023-01-05T09:52:13.126Z,98390.81
2023-01-05T09:54:18.713Z,98432.94
2023-01-05T09:59:31.632Z,98511.06
2023-01-05T10:01:38.245Z,98658.87
2023-01-05T10:04:08.252Z,98730.84
2023-01-05T10:06:15.983Z,98759.47
2023-01-05T10:08:28.285Z,98779.69
2023-01-05T10:11:09.763Z,98798.94
2023-01-05T10:13:30.689Z,98828.06
2023-01-05T10:15:42.605Z,98862.88
2023-01-05T10:17:46.695Z,98862.03
2023-01-05T10:19:50.803Z,98873.63
2023-01-05T10:22:21.889Z,98930.50
2023-01-05T10:24:33.138Z,98961.44
2023-01-05T10:27:26.099Z,98991.38
2023-01-05T10:30:15.827Z,98989.75
2023-01-05T10:32:28.906Z,99016.91
2023-01-05T10:34:31.167Z,99063.81
2023-01-05T10:39:29.746Z,99030.47
2023-01-05T10:41:41.556Z,99022.56
2023-01-05T10:44:15.183Z,99015.16
2023-01-05T10:46:41.125Z,98976.91
2023-01-05T10:48:41.136Z,98961.66
2023-01-05T10:50:45.097Z,98911.28
2023-01-05T10:52:47.987Z,98856.00
2023-01-05T10:54:59.009Z,98809.59
2023-01-05T10:57:35.495Z,98755.91
2023-01-05T10:59:55.699Z,98730.78
2023-01-05T11:01:58.194Z,98701.72
2023-01-05T11:04:34.862Z,98697.28
2023-01-05T11:06:38.614Z,98664.69
2023-01-05T11:08:41.017Z,98638.22
2023-01-05T11:10:56.793Z,98597.44
2023-01-05T11:13:31.545Z,98591.13
2023-01-05T11:15:42.919Z,98595.94
2023-01-05T11:17:45.755Z,98600.31
2023-01-05T11:19:52.410Z,98615.06
2023-01-05T11:22:01.429Z,98592.84
2023-01-05T11:24:05.031Z,98600.66
2023-01-05T11:26:19.863Z,98617.75
2023-01-05T11:28:22.226Z,98593.50
2023-01-05T11:30:25.532Z,98571.97
2023-01-05T11:32:28.295Z,98558.91
2023-01-05T11:34:46.130Z,98508.69
2023-01-05T11:37:07.598Z,98439.03
2023-01-05T11:39:26.846Z,98390.50
2023-01-05T11:41:29.293Z,98357.00
2023-01-05T11:43:33.096Z,98343.28
2023-01-05T11:45:46.394Z,98341.06
2023-01-05T11:47:50.566Z,98363.59
2023-01-05T11:50:25.118Z,98394.31
2023-01-05T11:52:34.852Z,98432.22
2023-01-05T11:54:39.305Z,98468.34
2023-01-05T11:56:41.629Z,98460.47
2023-01-05T11:58:46.790Z,98477.37
2023-01-05T12:01:15.475Z,98457.66
2023-01-05T12:03:24.269Z,98454.88
2023-01-05T12:05:59.380Z,98444.56
2023-01-05T12:08:09.524Z,98428.03
2023-01-05T12:10:31.135Z,98418.00
2023-01-05T12:12:39.517Z,98407.81
2023-01-05T12:14:44.805Z,98389.34
2023-01-05T12:16:53.585Z,98351.28
2023-01-05T12:19:16.894Z,98343.47
2023-01-05T12:21:26.240Z,98336.88
2023-01-05T12:23:50.163Z,98333.91
2023-01-05T12:26:04.542Z,98318.53
2023-01-05T12:28:35.794Z,98306.94
2023-01-05T12:34:11.175Z,98319.94
2023-01-05T12:37:04.838Z,98333.91
2023-01-05T12:39:49.457Z,98340.28
2023-01-05T12:42:22.373Z,98352.56
2023-01-05T12:44:52.223Z,98339.91
2023-01-05T12:47:16.146Z,98338.97
2023-01-05T12:49:27.620Z,98314.72
2023-01-05T12:51:37.816Z,98333.56
2023-01-05T12:53:52.126Z,98328.12
2023-01-05T12:55:57.423Z,98325.19
2023-01-05T12:58:23.825Z,98322.69
2023-01-05T13:00:31.264Z,98346.47
2023-01-05T13:02:38.451Z,98377.28
2023-01-05T13:04:54.312Z,98373.81
2023-01-05T13:07:11.330Z,98403.06
2023-01-05T13:09:21.528Z,98453.50
2023-01-05T13:11:36.059Z,98494.41
2023-01-05T13:13:38.802Z,98518.81
2023-01-05T13:15:52.771Z,98547.38
2023-01-05T13:17:58.710Z,98579.81
2023-01-05T13:20:20.103Z,98585.38
2023-01-05T13:22:23.858Z,98582.53
2023-01-05T13:24:41.799Z,98574.97
2023-01-05T13:26:44.451Z,98571.28
2023-01-05T13:28:52.604Z,98572.69
2023-01-05T13:31:22.949Z,98559.53
2023-01-05T13:33:41.957Z,98548.19
2023-01-05T13:36:07.350Z,98543.09
2023-01-05T13:38:37.234Z,98549.47
2023-01-05T13:40:52.638Z,98535.47
2023-01-05T13:45:54.805Z,98560.47
2023-01-05T13:48:13.128Z,98579.31
2023-01-05T13:50:37.182Z,98604.28
2023-01-05T13:53:04.655Z,98619.31
2023-01-05T13:55:17.840Z,98635.06
2023-01-05T13:57:26.925Z,98633.50
2023-01-05T13:59:35.304Z,98651.16
2023-01-05T14:01:45.642Z,98662.47
2023-01-05T14:03:54.960Z,98690.91
2023-01-05T14:06:00.543Z,98713.97
2023-01-05T14:08:06.511Z,98727.09
2023-01-05T14:10:27.920Z,98731.59
2023-01-05T14:12:56.719Z,98741.63
2023-01-05T14:15:01.551Z,98779.19
2023-01-05T14:17:04.176Z,98805.44
2023-01-05T14:19:47.069Z,98829.06
2023-01-05T14:21:49.397Z,98823.84
2023-01-05T14:23:56.283Z,98845.66
2023-01-05T14:26:08.317Z,98849.81
2023-01-05T14:28:19.855Z,98842.19
2023-01-05T14:30:24.281Z,98827.41
2023-01-05T14:32:41.168Z,98839.38
2023-01-05T14:34:52.730Z,98846.91
2023-01-05T14:36:58.169Z,98874.19
2023-01-05T14:39:04.014Z,98877.00
2023-01-05T14:41:15.660Z,98870.94
2023-01-05T14:43:21.347Z,98842.53
2023-01-05T14:45:33.468Z,98866.88
2023-01-05T14:47:47.986Z,98904.25
2023-01-05T14:49:55.988Z,98911.69
2023-01-05T14:52:03.211Z,98913.78
2023-01-05T14:54:06.171Z,98899.81
2023-01-05T14:56:08.748Z,98876.88
2023-01-05T14:58:12.829Z,98866.44
2023-01-05T15:03:20.219Z,98847.91
2023-01-05T15:05:23.171Z,98848.75
2023-01-05T15:07:54.592Z,98844.59
2023-01-05T15:10:17.549Z,98855.22
2023-01-05T15:12:22.669Z,98857.50
2023-01-05T15:14:35.444Z,98879.16
2023-01-05T15:16:59.303Z,98890.38
2023-01-05T15:19:29.595Z,98914.22
2023-01-05T15:22:12.929Z,98947.94
2023-01-05T15:24:39.213Z,98981.56
2023-01-05T15:27:03.263Z,98998.50
2023-01-05T15:29:17.468Z,99016.09
2023-01-05T15:31:33.955Z,99052.03
2023-01-05T15:34:06.697Z,99074.69
2023-01-05T15:36:21.728Z,99116.97
2023-01-05T15:38:27.396Z,99139.31
2023-01-05T15:40:32.335Z,99161.81
2023-01-05T15:42:42.048Z,99166.81
2023-01-05T15:44:48.211Z,99177.03
2023-01-05T15:46:51.948Z,99228.12
2023-01-05T15:48:54.869Z,99240.34
2023-01-05T15:50:58.827Z,99239.78
2023-01-05T15:53:02.317Z,99233.81
2023-01-05T15:55:15.260Z,99231.78
2023-01-05T15:57:20.557Z,99246.28
2023-01-05T15:59:25.560Z,99236.97
2023-01-05T16:01:29.285Z,99241.25
2023-01-05T16:03:37.116Z,99242.25
2023-01-05T16:05:39.786Z,99261.31
2023-01-05T16:07:53.256Z,99278.25
2023-01-05T16:09:55.918Z,99295.25
2023-01-05T16:12:23.410Z,99330.19
2023-01-05T16:14:38.649Z,99363.09
2023-01-05T16:16:52.886Z,99380.62
2023-01-05T16:19:01.978Z,99380.53
2023-01-05T16:21:33.267Z,99375.53
2023-01-05T16:23:42.619Z,99367.72
2023-01-05T16:25:57.752Z,99362.78
2023-01-05T16:28:06.296Z,99357.09
2023-01-05T16:30:34.833Z,99340.56
2023-01-05T16:32:38.813Z,99352.75
2023-01-05T16:34:41.255Z,99354.41
2023-01-05T16:37:04.095Z,99357.19
2023-01-05T16:39:36.059Z,99356.53
2023-01-05T16:41:58.503Z,99358.47
2023-01-05T16:44:02.448Z,99358.38
2023-01-05T16:46:28.966Z,99359.50
2023-01-05T16:48:40.143Z,99375.66
2023-01-05T16:50:54.882Z,99398.06
2023-01-05T16:53:10.599Z,99427.91
2023-01-05T16:55:29.551Z,99463.50
2023-01-05T16:57:43.318Z,99481.13
2023-01-05T16:59:52.484Z,99509.38
2023-01-05T17:01:55.715Z,99523.72
2023-01-05T17:03:58.346Z,99540.34
2023-01-05T17:06:01.494Z,99560.44
2023-01-05T17:08:18.827Z,99544.16
2023-01-05T17:10:26.214Z,99549.69
2023-01-05T17:12:28.628Z,99550.69
2023-01-05T17:14:30.953Z,99545.75
2023-01-05T17:16:33.782Z,99564.97
2023-01-05T17:18:36.269Z,99592.41
2023-01-05T17:20:41.518Z,99605.28
2023-01-05T17:22:44.330Z,99598.03
2023-01-05T17:24:46.918Z,99602.91
2023-01-05T17:26:49.574Z,99617.59
2023-01-05T17:28:57.142Z,99619.37
2023-01-05T17:30:59.643Z,99635.91
2023-01-05T17:33:03.077Z,99662.03
2023-01-05T17:37:17.325Z,99703.16
2023-01-05T17:39:20.940Z,99710.19
2023-01-05T17:41:23.559Z,99724.50
2023-01-05T17:43:25.917Z,99752.16
2023-01-05T17:45:28.663Z,99818.34
2023-01-05T17:47:31.565Z,99863.97
2023-01-05T17:49:33.966Z,99894.91
2023-01-05T17:51:36.362Z,99936.72
2023-01-05T17:53:40.238Z,99971.63
2023-01-05T17:55:44.129Z,99988.91
2023-01-05T17:57:47.402Z,100003.56
2023-01-05T17:59:50.451Z,100001.16
2023-01-05T18:01:54.714Z,100007.94
2023-01-05T18:03:57.499Z,100014.00
2023-01-05T18:06:01.414Z,100020.25
2023-01-05T18:10:16.342Z,100023.63
2023-01-05T18:12:18.823Z,100037.44
2023-01-05T18:14:21.297Z,100044.41
2023-01-05T18:16:24.990Z,100044.41
2023-01-05T18:18:28.089Z,100059.78
2023-01-05T18:20:30.483Z,100065.00
2023-01-05T18:22:33.926Z,100060.81
2023-01-05T18:24:36.805Z,100059.09
2023-01-05T18:26:39.541Z,100062.19
2023-01-05T18:28:42.351Z,100063.41
2023-01-05T18:30:45.295Z,100063.56
2023-01-05T18:32:48.611Z,100066.00
2023-01-05T18:34:52.404Z,100075.44
2023-01-05T18:37:01.827Z,100083.12
2023-01-05T18:39:08.905Z,100100.19
2023-01-05T18:41:12.626Z,100105.63
2023-01-05T18:43:15.432Z,100108.41
2023-01-05T18:45:26.168Z,100104.94
2023-01-05T18:47:35.644Z,100105.78
2023-01-05T18:49:38.130Z,100093.97
2023-01-05T18:51:40.922Z,100098.50
2023-01-05T18:53:44.218Z,100091.53
2023-01-05T18:55:46.703Z,100094.81
2023-01-05T18:57:49.725Z,100113.75
2023-01-05T18:59:53.019Z,100087.91
2023-01-05T19:01:55.667Z,100082.94
2023-01-05T19:03:58.193Z,100085.78
2023-01-05T19:06:05.753Z,100083.94
2023-01-05T19:08:09.605Z,100092.66
2023-01-05T19:10:12.072Z,100097.78
2023-01-05T19:12:15.129Z,100098.84
2023-01-05T19:14:19.249Z,100098.81
2023-01-05T19:16:24.603Z,100114.59
2023-01-05T19:18:27.885Z,100107.72
2023-01-05T19:20:31.816Z,100100.06
2023-01-05T19:22:34.956Z,100104.19
2023-01-05T19:24:37.720Z,100111.37
2023-01-05T19:26:40.936Z,100112.28
2023-01-05T19:28:45.320Z,100121.16
2023-01-05T19:30:48.759Z,100109.06
2023-01-05T19:32:51.723Z,100117.59
2023-01-05T19:34:54.085Z,100124.53
2023-01-05T19:36:57.376Z,100133.38
2023-01-05T19:39:14.828Z,100147.84
2023-01-05T19:41:19.443Z,100158.25
2023-01-05T19:43:23.078Z,100170.16
2023-01-05T19:45:26.011Z,100182.09
2023-01-05T19:47:28.763Z,100194.25
2023-01-05T19:49:31.603Z,100204.00
2023-01-05T19:51:34.631Z,100201.22
2023-01-05T19:53:38.961Z,100209.28
2023-01-05T19:55:41.997Z,100192.87
2023-01-05T19:57:44.445Z,100205.75
2023-01-05T19:59:47.100Z,100209.16
2023-01-05T20:01:49.909Z,100204.66
2023-01-05T20:03:55.549Z,100221.34
2023-01-05T20:06:18.186Z,100211.81
2023-01-05T20:08:20.777Z,100208.81
2023-01-05T20:10:26.378Z,100201.97
2023-01-05T20:12:29.117Z,100206.84
2023-01-05T20:14:34.434Z,100196.56
2023-01-05T20:16:38.399Z,100202.53
2023-01-05T20:18:41.358Z,100196.75
2023-01-05T20:20:43.859Z,100195.16
2023-01-05T20:22:48.404Z,100191.69
2023-01-05T20:24:51.153Z,100194.38
2023-01-05T20:26:59.824Z,100189.81
2023-01-05T20:29:05.004Z,100193.97
2023-01-05T20:31:21.642Z,100210.72
2023-01-05T20:33:25.428Z,100212.53
2023-01-05T20:35:28.486Z,100212.47
2023-01-05T20:37:32.676Z,100214.91
2023-01-05T20:39:36.737Z,100225.41
2023-01-05T20:41:41.911Z,100220.91
2023-01-05T20:43:46.683Z,100245.91
2023-01-05T20:45:49.751Z,100239.06
2023-01-05T20:47:52.826Z,100239.28
2023-01-05T20:49:55.143Z,100244.41
2023-01-05T20:51:57.966Z,100263.13
2023-01-05T20:54:05.980Z,100268.97
2023-01-05T20:56:16.191Z,100272.72
2023-01-05T20:58:18.603Z,100296.69
2023-01-05T21:00:21.787Z,100284.69
2023-01-05T21:02:24.816Z,100287.97
2023-01-05T21:04:29.135Z,100299.50
2023-01-05T21:06:32.749Z,100304.16
2023-01-05T21:08:36.457Z,100285.94
2023-01-05T21:10:39.344Z,100282.84
2023-01-05T21:12:42.114Z,100275.53
2023-01-05T21:14:44.554Z,100275.97
2023-01-05T21:16:52.934Z,100283.47
2023-01-05T21:18:55.904Z,100286.78
2023-01-05T21:20:59.386Z,100290.19
2023-01-05T21:23:01.857Z,100294.31
2023-01-05T21:25:05.322Z,100291.03
2023-01-05T21:27:07.866Z,100285.94
2023-01-05T21:29:14.010Z,100275.41
2023-01-05T21:31:19.991Z,100295.25
2023-01-05T21:33:22.428Z,100300.19
2023-01-05T21:35:24.768Z,100304.22
2023-01-05T21:37:27.668Z,100292.38
2023-01-05T21:39:30.035Z,100311.31
2023-01-05T21:41:51.478Z,100310.50
2023-01-05T21:43:54.437Z,100313.94
2023-01-05T21:45:57.050Z,100316.34
2023-01-05T21:47:59.519Z,100320.62
2023-01-05T21:50:06.404Z,100311.97
2023-01-05T21:52:29.300Z,100317.41
2023-01-05T21:54:50.262Z,100311.25
2023-01-05T21:56:58.844Z,100322.59
2023-01-05T21:59:01.245Z,100313.88
2023-01-05T22:01:03.621Z,100302.09
2023-01-05T22:03:06.270Z,100301.37
2023-01-05T22:05:08.785Z,100295.25
2023-01-05T22:07:11.415Z,100285.81
2023-01-05T22:09:14.394Z,100284.97
2023-01-05T22:11:16.971Z,100273.84
2023-01-05T22:13:19.370Z,100270.25
2023-01-05T22:15:22.024Z,100282.59
2023-01-05T22:17:24.480Z,100277.50
2023-01-05T22:19:26.871Z,100275.75
2023-01-05T22:21:31.102Z,100277.84
2023-01-05T22:23:33.676Z,100265.69
2023-01-05T22:25:36.808Z,100254.41
2023-01-05T22:27:39.495Z,100252.09
2023-01-05T22:29:41.809Z,100237.66
2023-01-05T22:31:44.460Z,100237.44
2023-01-05T22:33:49.454Z,100233.16
2023-01-05T22:35:51.975Z,100222.25
2023-01-05T22:37:55.894Z,100205.00
2023-01-05T22:39:58.612Z,100195.63
2023-01-05T22:42:00.917Z,100187.06
2023-01-05T22:44:04.355Z,100200.91
2023-01-05T22:46:11.305Z,100175.72
2023-01-05T22:48:13.693Z,100178.47
2023-01-05T22:50:16.124Z,100170.81
2023-01-05T22:52:18.706Z,100176.00
2023-01-05T22:54:21.239Z,100169.97
2023-01-05T22:56:25.091Z,100172.09
2023-01-05T22:58:28.232Z,100180.63
2023-01-05T23:00:30.548Z,100187.19
2023-01-05T23:02:33.135Z,100199.72
2023-01-05T23:04:35.770Z,100205.50
2023-01-05T23:06:38.510Z,100187.62
2023-01-05T23:08:42.268Z,100185.03
2023-01-05T23:10:44.920Z,100179.81
2023-01-05T23:12:47.230Z,100176.50
2023-01-05T23:14:49.590Z,100159.88
2023-01-05T23:16:52.414Z,100160.03
2023-01-05T23:18:55.390Z,100162.94
2023-01-05T23:21:00.699Z,100160.41
2023-01-05T23:23:05.483Z,100167.16
2023-01-05T23:25:08.284Z,100169.59
2023-01-05T23:27:11.156Z,100183.31
2023-01-05T23:29:13.791Z,100205.88
2023-01-05T23:31:18.868Z,100208.09
2023-01-05T23:33:23.090Z,100224.50
2023-01-05T23:35:25.705Z,100224.72
2023-01-05T23:37:30.662Z,100219.31
2023-01-05T23:39:32.952Z,100230.44
2023-01-05T23:41:35.588Z,100248.72
2023-01-05T23:43:39.765Z,100265.81
2023-01-05T23:45:43.210Z,100275.41
2023-01-05T23:47:45.906Z,100275.59
2023-01-05T23:49:48.193Z,100286.00
2023-01-05T23:51:50.556Z,100281.59
2023-01-05T23:53:53.747Z,100303.72
2023-01-05T23:56:17.155Z,100298.06
2023-01-05T23:58:19.577Z,100297.28
